sensor_id;sensor_type;location;lat;lon;timestamp;pressure;altitude;pressure_sealevel;temperature;humidity
7802;BME280;3945;48.952;9.506;2023-04-09T00:01:39;98604.22;;;7.60;85.54
7802;BME280;3945;48.952;9.506;2023-04-09T00:04:05;98609.91;;;7.57;85.00
7802;BME280;3945;48.952;9.506;2023-04-09T00:06:33;98603.22;;;7.55;85.39
7802;BME280;3945;48.952;9.506;2023-04-09T00:08:59;98607.25;;;7.51;85.20
7802;BME280;3945;48.952;9.506;2023-04-09T00:11:26;98607.25;;;7.51;85.41
7802;BME280;3945;48.952;9.506;2023-04-09T00:13:52;98601.97;;;7.51;85.60
7802;BME280;3945;48.952;9.506;2023-04-09T00:16:18;98602.78;;;7.51;85.48
7802;BME280;3945;48.952;9.506;2023-04-09T00:18:45;98600.13;;;7.51;84.99
7802;BME280;3945;48.952;9.506;2023-04-09T00:21:11;98601.16;;;7.50;84.94
7802;BME280;3945;48.952;9.506;2023-04-09T00:23:39;98600.34;;;7.50;85.59
7802;BME280;3945;48.952;9.506;2023-04-09T00:26:05;98594.44;;;7.48;85.43
7802;BME280;3945;48.952;9.506;2023-04-09T00:28:32;98598.94;;;7.47;85.10
7802;BME280;3945;48.952;9.506;2023-04-09T00:30:58;98600.97;;;7.45;85.38
7802;BME280;3945;48.952;9.506;2023-04-09T00:33:24;98604.22;;;7.40;85.01
7802;BME280;3945;48.952;9.506;2023-04-09T00:35:51;98597.31;;;7.39;85.83
7802;BME280;3945;48.952;9.506;2023-04-09T00:38:17;98604.63;;;7.37;85.55
7802;BME280;3945;48.952;9.506;2023-04-09T00:40:48;98602.41;;;7.34;86.08
7802;BME280;3945;48.952;9.506;2023-04-09T00:43:15;98600.34;;;7.36;85.57
7802;BME280;3945;48.952;9.506;2023-04-09T00:45:42;98597.69;;;7.36;86.06
7802;BME280;3945;48.952;9.506;2023-04-09T00:48:08;98600.34;;;7.36;85.55
7802;BME280;3945;48.952;9.506;2023-04-09T00:50:35;98603.59;;;7.32;85.88
7802;BME280;3945;48.952;9.506;2023-04-09T00:53:02;98610.72;;;7.31;85.46
7802;BME280;3945;48.952;9.506;2023-04-09T00:55:28;98607.47;;;7.29;86.37
7802;BME280;3945;48.952;9.506;2023-04-09T00:57:56;98606.88;;;7.27;86.32
7802;BME280;3945;48.952;9.506;2023-04-09T01:00:23;98608.72;;;7.27;86.63
7802;BME280;3945;48.952;9.506;2023-04-09T01:02:49;98613.56;;;7.23;86.69
7802;BME280;3945;48.952;9.506;2023-04-09T01:05:16;98607.88;;;7.20;87.39
7802;BME280;3945;48.952;9.506;2023-04-09T01:07:47;98614.00;;;7.20;87.12
7802;BME280;3945;48.952;9.506;2023-04-09T01:10:19;98611.34;;;7.20;86.50
7802;BME280;3945;48.952;9.506;2023-04-09T01:12:51;98607.88;;;7.20;87.14
7802;BME280;3945;48.952;9.506;2023-04-09T01:15:21;98603.19;;;7.22;86.41
7802;BME280;3945;48.952;9.506;2023-04-09T01:17:55;98606.06;;;7.20;86.96
7802;BME280;3945;48.952;9.506;2023-04-09T01:20:28;98603.59;;;7.19;86.83
7802;BME280;3945;48.952;9.506;2023-04-09T01:22:56;98603.59;;;7.19;87.03
7802;BME280;3945;48.952;9.506;2023-04-09T01:25:28;98601.53;;;7.21;87.09
7802;BME280;3945;48.952;9.506;2023-04-09T01:28:09;98595.25;;;7.22;86.61
7802;BME280;3945;48.952;9.506;2023-04-09T01:30:39;98611.75;;;7.24;86.98
7802;BME280;3945;48.952;9.506;2023-04-09T01:33:08;98599.53;;;7.23;86.34
7802;BME280;3945;48.952;9.506;2023-04-09T01:35:37;98605.63;;;7.23;87.00
7802;BME280;3945;48.952;9.506;2023-04-09T01:38:03;98603.41;;;7.27;86.64
7802;BME280;3945;48.952;9.506;2023-04-09T01:40:30;98597.31;;;7.26;86.31
7802;BME280;3945;48.952;9.506;2023-04-09T01:42:56;98601.97;;;7.24;86.07
7802;BME280;3945;48.952;9.506;2023-04-09T01:45:24;98599.31;;;7.24;87.22
7802;BME280;3945;48.952;9.506;2023-04-09T01:47:51;98600.97;;;7.25;86.07
7802;BME280;3945;48.952;9.506;2023-04-09T01:50:17;98598.94;;;7.27;86.22
7802;BME280;3945;48.952;9.506;2023-04-09T01:52:44;98600.75;;;7.27;86.80
7802;BME280;3945;48.952;9.506;2023-04-09T01:55:11;98598.13;;;7.27;85.99
7802;BME280;3945;48.952;9.506;2023-04-09T01:57:37;98590.19;;;7.27;86.83
7802;BME280;3945;48.952;9.506;2023-04-09T02:00:04;98597.50;;;7.25;86.88
7802;BME280;3945;48.952;9.506;2023-04-09T02:02:34;98595.66;;;7.25;86.81
7802;BME280;3945;48.952;9.506;2023-04-09T02:05:01;98593.03;;;7.25;86.43
7802;BME280;3945;48.952;9.506;2023-04-09T02:07:32;98602.16;;;7.23;86.35
7802;BME280;3945;48.952;9.506;2023-04-09T02:10:00;98598.91;;;7.21;86.72
7802;BME280;3945;48.952;9.506;2023-04-09T02:12:27;98598.13;;;7.20;87.21
7802;BME280;3945;48.952;9.506;2023-04-09T02:14:55;98601.78;;;7.19;87.17
7802;BME280;3945;48.952;9.506;2023-04-09T02:17:22;98600.97;;;7.19;87.15
7802;BME280;3945;48.952;9.506;2023-04-09T02:19:50;98600.13;;;7.18;87.23
7802;BME280;3945;48.952;9.506;2023-04-09T02:22:16;98601.78;;;7.19;87.45
7802;BME280;3945;48.952;9.506;2023-04-09T02:24:43;98592.81;;;7.20;87.66
7802;BME280;3945;48.952;9.506;2023-04-09T02:27:10;98599.72;;;7.21;87.73
7802;BME280;3945;48.952;9.506;2023-04-09T02:29:37;98596.25;;;7.21;86.87
7802;BME280;3945;48.952;9.506;2023-04-09T02:32:03;98602.38;;;7.21;87.44
7802;BME280;3945;48.952;9.506;2023-04-09T02:34:30;98597.88;;;7.22;86.82
7802;BME280;3945;48.952;9.506;2023-04-09T02:36:57;98594.84;;;7.25;87.32
7802;BME280;3945;48.952;9.506;2023-04-09T02:39:24;98590.75;;;7.22;86.88
7802;BME280;3945;48.952;9.506;2023-04-09T02:41:51;98596.06;;;7.22;86.42
7802;BME280;3945;48.952;9.506;2023-04-09T02:44:17;98593.41;;;7.22;86.57
7802;BME280;3945;48.952;9.506;2023-04-09T02:46:44;98588.31;;;7.21;86.75
7802;BME280;3945;48.952;9.506;2023-04-09T02:49:11;98597.88;;;7.22;86.52
7802;BME280;3945;48.952;9.506;2023-04-09T02:51:37;98597.88;;;7.22;87.09
7802;BME280;3945;48.952;9.506;2023-04-09T02:54:05;98601.53;;;7.21;86.53
7802;BME280;3945;48.952;9.506;2023-04-09T02:56:31;98600.97;;;7.19;86.52
7802;BME280;3945;48.952;9.506;2023-04-09T02:58:57;98595.84;;;7.17;86.37
7802;BME280;3945;48.952;9.506;2023-04-09T03:01:24;98592.59;;;7.15;85.93
7802;BME280;3945;48.952;9.506;2023-04-09T03:03:50;98588.72;;;7.11;86.63
7802;BME280;3945;48.952;9.506;2023-04-09T03:06:16;98589.75;;;7.10;86.67
7802;BME280;3945;48.952;9.506;2023-04-09T03:08:43;98584.03;;;7.06;86.47
7802;BME280;3945;48.952;9.506;2023-04-09T03:11:11;98588.72;;;7.04;86.59
7802;BME280;3945;48.952;9.506;2023-04-09T03:13:37;98580.38;;;7.07;86.07
7802;BME280;3945;48.952;9.506;2023-04-09T03:16:03;98576.72;;;7.09;86.04
7802;BME280;3945;48.952;9.506;2023-04-09T03:18:30;98579.16;;;7.10;86.46
7802;BME280;3945;48.952;9.506;2023-04-09T03:20:56;98581.81;;;7.10;86.08
7802;BME280;3945;48.952;9.506;2023-04-09T03:23:22;98577.34;;;7.11;86.73
7802;BME280;3945;48.952;9.506;2023-04-09T03:25:58;98580.78;;;7.11;86.07
7802;BME280;3945;48.952;9.506;2023-04-09T03:28:26;98580.78;;;7.11;85.99
7802;BME280;3945;48.952;9.506;2023-04-09T03:30:52;98571.84;;;7.12;85.77
7802;BME280;3945;48.952;9.506;2023-04-09T03:33:18;98576.72;;;7.15;85.43
7802;BME280;3945;48.952;9.506;2023-04-09T03:35:45;98582.63;;;7.17;86.00
7802;BME280;3945;48.952;9.506;2023-04-09T03:38:11;98579.59;;;7.20;85.95
7802;BME280;3945;48.952;9.506;2023-04-09T03:40:37;98570.41;;;7.23;86.39
7802;BME280;3945;48.952;9.506;2023-04-09T03:43:04;98573.69;;;7.25;86.19
7802;BME280;3945;48.952;9.506;2023-04-09T03:45:31;98572.66;;;7.26;86.23
7802;BME280;3945;48.952;9.506;2023-04-09T03:47:57;98576.13;;;7.26;86.42
7802;BME280;3945;48.952;9.506;2023-04-09T03:50:24;98579.34;;;7.28;85.96
7802;BME280;3945;48.952;9.506;2023-04-09T03:52:50;98574.88;;;7.29;86.48
7802;BME280;3945;48.952;9.506;2023-04-09T03:55:16;98581.00;;;7.29;87.11
7802;BME280;3945;48.952;9.506;2023-04-09T03:57:43;98579.34;;;7.28;85.83
7802;BME280;3945;48.952;9.506;2023-04-09T04:00:09;98581.63;;;7.25;85.58
7802;BME280;3945;48.952;9.506;2023-04-09T04:02:37;98573.69;;;7.25;85.88
7802;BME280;3945;48.952;9.506;2023-04-09T04:05:04;98578.97;;;7.25;85.84
7802;BME280;3945;48.952;9.506;2023-04-09T04:07:31;98578.53;;;7.21;86.08
7802;BME280;3945;48.952;9.506;2023-04-09T04:09:57;98581.81;;;7.17;86.00
7802;BME280;3945;48.952;9.506;2023-04-09T04:12:23;98575.06;;;7.14;86.77
7802;BME280;3945;48.952;9.506;2023-04-09T04:14:50;98583.63;;;7.10;85.95
7802;BME280;3945;48.952;9.506;2023-04-09T04:17:16;98579.56;;;7.07;86.56
7802;BME280;3945;48.952;9.506;2023-04-09T04:19:44;98569.97;;;7.06;86.73
7802;BME280;3945;48.952;9.506;2023-04-09T04:22:10;98584.44;;;7.03;86.12
7802;BME280;3945;48.952;9.506;2023-04-09T04:24:36;98581.81;;;7.03;86.72
7802;BME280;3945;48.952;9.506;2023-04-09T04:27:03;98578.34;;;7.03;87.39
7802;BME280;3945;48.952;9.506;2023-04-09T04:29:29;98582.00;;;7.02;87.57
7802;BME280;3945;48.952;9.506;2023-04-09T04:31:55;98585.25;;;6.97;87.25
7802;BME280;3945;48.952;9.506;2023-04-09T04:34:22;98589.72;;;6.97;86.93
7802;BME280;3945;48.952;9.506;2023-04-09T04:36:49;98588.28;;;6.94;88.00
7802;BME280;3945;48.952;9.506;2023-04-09T04:39:16;98591.34;;;6.91;88.42
7802;BME280;3945;48.952;9.506;2023-04-09T04:41:42;98591.34;;;6.91;88.48
7802;BME280;3945;48.952;9.506;2023-04-09T04:44:08;98600.91;;;6.92;87.90
7802;BME280;3945;48.952;9.506;2023-04-09T04:46:35;98600.50;;;6.95;87.92
7802;BME280;3945;48.952;9.506;2023-04-09T04:49:01;98601.72;;;6.93;88.13
7802;BME280;3945;48.952;9.506;2023-04-09T04:51:29;98604.97;;;6.95;88.35
7802;BME280;3945;48.952;9.506;2023-04-09T04:53:57;98607.63;;;6.95;87.32
7802;BME280;3945;48.952;9.506;2023-04-09T04:56:23;98596.03;;;6.96;87.98
7802;BME280;3945;48.952;9.506;2023-04-09T04:58:49;98604.97;;;6.95;88.45
7802;BME280;3945;48.952;9.506;2023-04-09T05:01:16;98597.25;;;6.93;87.88
7802;BME280;3945;48.952;9.506;2023-04-09T05:03:42;98594.59;;;6.93;88.55
7802;BME280;3945;48.952;9.506;2023-04-09T05:06:08;98607.00;;;6.93;88.00
7802;BME280;3945;48.952;9.506;2023-04-09T05:08:35;98599.50;;;6.96;88.32
7802;BME280;3945;48.952;9.506;2023-04-09T05:11:02;98597.66;;;6.97;87.92
7802;BME280;3945;48.952;9.506;2023-04-09T05:13:29;98595.84;;;6.97;88.05
7802;BME280;3945;48.952;9.506;2023-04-09T05:15:55;98598.25;;;6.99;88.24
7802;BME280;3945;48.952;9.506;2023-04-09T05:18:22;98600.53;;;7.02;88.24
7802;BME280;3945;48.952;9.506;2023-04-09T05:20:48;98601.72;;;7.06;88.23
7802;BME280;3945;48.952;9.506;2023-04-09T05:23:14;98599.72;;;7.08;87.67
7802;BME280;3945;48.952;9.506;2023-04-09T05:25:41;98605.22;;;7.13;87.68
7802;BME280;3945;48.952;9.506;2023-04-09T05:28:09;98614.19;;;7.19;87.42
7802;BME280;3945;48.952;9.506;2023-04-09T05:30:36;98608.47;;;7.22;87.71
7802;BME280;3945;48.952;9.506;2023-04-09T05:33:02;98612.97;;;7.28;87.61
7802;BME280;3945;48.952;9.506;2023-04-09T05:35:28;98612.56;;;7.37;87.15
7802;BME280;3945;48.952;9.506;2023-04-09T05:37:55;98613.56;;;7.43;87.69
7802;BME280;3945;48.952;9.506;2023-04-09T05:40:21;98610.72;;;7.51;86.62
7802;BME280;3945;48.952;9.506;2023-04-09T05:42:47;98617.25;;;7.55;85.49
7802;BME280;3945;48.952;9.506;2023-04-09T05:45:15;98624.97;;;7.57;85.33
7802;BME280;3945;48.952;9.506;2023-04-09T05:47:41;98621.13;;;7.59;85.97
7802;BME280;3945;48.952;9.506;2023-04-09T05:50:08;98616.25;;;7.63;85.28
7802;BME280;3945;48.952;9.506;2023-04-09T05:52:35;98616.00;;;7.71;85.70
7802;BME280;3945;48.952;9.506;2023-04-09T05:55:01;98619.06;;;7.81;85.37
7802;BME280;3945;48.952;9.506;2023-04-09T05:57:29;98618.66;;;7.91;86.11
7802;BME280;3945;48.952;9.506;2023-04-09T05:59:55;98610.47;;;8.05;85.93
7802;BME280;3945;48.952;9.506;2023-04-09T06:02:23;98605.94;;;8.19;85.90
7802;BME280;3945;48.952;9.506;2023-04-09T06:04:50;98605.53;;;8.35;85.00
7802;BME280;3945;48.952;9.506;2023-04-09T06:07:16;98601.97;;;8.54;83.99
7802;BME280;3945;48.952;9.506;2023-04-09T06:09:43;98601.25;;;8.72;83.15
7802;BME280;3945;48.952;9.506;2023-04-09T06:12:10;98611.13;;;8.96;82.73
7802;BME280;3945;48.952;9.506;2023-04-09T06:14:37;98605.03;;;9.27;80.65
7802;BME280;3945;48.952;9.506;2023-04-09T06:17:03;98609.69;;;9.57;79.47
7802;BME280;3945;48.952;9.506;2023-04-09T06:19:31;98601.22;;;9.91;77.80
7802;BME280;3945;48.952;9.506;2023-04-09T06:21:57;98607.94;;;10.12;75.35
7802;BME280;3945;48.952;9.506;2023-04-09T06:24:23;98606.84;;;10.38;74.73
7802;BME280;3945;48.952;9.506;2023-04-09T06:26:50;98605.66;;;10.70;74.46
7802;BME280;3945;48.952;9.506;2023-04-09T06:29:16;98610.09;;;11.06;73.25
7802;BME280;3945;48.952;9.506;2023-04-09T06:31:42;98604.84;;;11.41;71.24
7802;BME280;3945;48.952;9.506;2023-04-09T06:34:09;98609.41;;;11.76;70.26
7802;BME280;3945;48.952;9.506;2023-04-09T06:36:37;98605.38;;;12.08;69.11
7802;BME280;3945;48.952;9.506;2023-04-09T06:39:04;98607.06;;;12.37;66.71
7802;BME280;3945;48.952;9.506;2023-04-09T06:41:31;98605.03;;;12.68;66.33
7802;BME280;3945;48.952;9.506;2023-04-09T06:43:57;98602.09;;;12.98;64.15
7802;BME280;3945;48.952;9.506;2023-04-09T06:46:24;98603.06;;;13.20;63.14
7802;BME280;3945;48.952;9.506;2023-04-09T06:48:50;98610.97;;;13.43;63.53
7802;BME280;3945;48.952;9.506;2023-04-09T06:51:16;98604.16;;;13.69;62.64
7802;BME280;3945;48.952;9.506;2023-04-09T06:53:44;98604.06;;;13.97;60.36
7802;BME280;3945;48.952;9.506;2023-04-09T06:56:12;98613.25;;;14.23;58.75
7802;BME280;3945;48.952;9.506;2023-04-09T06:58:38;98618.72;;;14.12;56.84
7802;BME280;3945;48.952;9.506;2023-04-09T07:01:04;98617.47;;;13.81;58.59
7802;BME280;3945;48.952;9.506;2023-04-09T07:03:31;98619.25;;;13.75;60.09
7802;BME280;3945;48.952;9.506;2023-04-09T07:05:57;98626.47;;;13.75;60.42
7802;BME280;3945;48.952;9.506;2023-04-09T07:08:23;98631.81;;;13.75;60.19
7802;BME280;3945;48.952;9.506;2023-04-09T07:10:51;98633.34;;;13.71;60.95
7802;BME280;3945;48.952;9.506;2023-04-09T07:13:18;98630.31;;;13.84;60.37
7802;BME280;3945;48.952;9.506;2023-04-09T07:15:44;98628.81;;;13.88;57.49
7802;BME280;3945;48.952;9.506;2023-04-09T07:18:11;98633.75;;;13.96;57.24
7802;BME280;3945;48.952;9.506;2023-04-09T07:20:37;98641.94;;;13.89;56.98
7802;BME280;3945;48.952;9.506;2023-04-09T07:23:03;98635.94;;;13.82;57.21
7802;BME280;3945;48.952;9.506;2023-04-09T07:25:29;98638.84;;;13.97;57.70
7802;BME280;3945;48.952;9.506;2023-04-09T07:27:57;98640.91;;;14.12;57.12
7802;BME280;3945;48.952;9.506;2023-04-09T07:30:24;98640.31;;;14.27;57.22
7802;BME280;3945;48.952;9.506;2023-04-09T07:32:50;98645.25;;;14.35;56.39
7802;BME280;3945;48.952;9.506;2023-04-09T07:35:16;98644.00;;;14.59;56.13
7802;BME280;3945;48.952;9.506;2023-04-09T07:37:43;98645.69;;;14.65;55.09
7802;BME280;3945;48.952;9.506;2023-04-09T07:40:10;98640.16;;;14.72;54.57
7802;BME280;3945;48.952;9.506;2023-04-09T07:42:36;98643.50;;;14.84;54.63
7802;BME280;3945;48.952;9.506;2023-04-09T07:45:05;98641.72;;;14.90;54.83
7802;BME280;3945;48.952;9.506;2023-04-09T07:47:31;98636.00;;;15.08;53.55
7802;BME280;3945;48.952;9.506;2023-04-09T07:50:00;98636.31;;;15.11;54.00
7802;BME280;3945;48.952;9.506;2023-04-09T07:52:26;98637.38;;;15.10;54.65
7802;BME280;3945;48.952;9.506;2023-04-09T07:54:52;98642.59;;;15.22;53.75
7802;BME280;3945;48.952;9.506;2023-04-09T07:57:21;98639.16;;;15.27;54.21
7802;BME280;3945;48.952;9.506;2023-04-09T07:59:47;98636.94;;;15.18;52.17
7802;BME280;3945;48.952;9.506;2023-04-09T08:02:15;98634.03;;;14.98;53.43
7802;BME280;3945;48.952;9.506;2023-04-09T08:04:41;98643.44;;;15.01;54.34
7802;BME280;3945;48.952;9.506;2023-04-09T08:07:08;98642.28;;;15.18;53.38
7802;BME280;3945;48.952;9.506;2023-04-09T08:09:34;98639.59;;;15.45;53.86
7802;BME280;3945;48.952;9.506;2023-04-09T08:12:01;98636.06;;;15.67;52.40
7802;BME280;3945;48.952;9.506;2023-04-09T08:14:27;98643.97;;;15.83;53.35
7802;BME280;3945;48.952;9.506;2023-04-09T08:16:53;98630.94;;;15.97;50.84
7802;BME280;3945;48.952;9.506;2023-04-09T08:19:21;98649.34;;;15.83;49.66
7802;BME280;3945;48.952;9.506;2023-04-09T08:21:48;98644.69;;;15.74;51.04
7802;BME280;3945;48.952;9.506;2023-04-09T08:24:15;98645.31;;;15.86;50.02
7802;BME280;3945;48.952;9.506;2023-04-09T08:26:42;98640.63;;;16.03;49.42
7802;BME280;3945;48.952;9.506;2023-04-09T08:29:09;98639.38;;;16.16;49.01
7802;BME280;3945;48.952;9.506;2023-04-09T08:31:36;98643.16;;;16.20;52.15
7802;BME280;3945;48.952;9.506;2023-04-09T08:34:02;98640.53;;;16.30;49.54
7802;BME280;3945;48.952;9.506;2023-04-09T08:36:30;98649.16;;;16.37;49.35
7802;BME280;3945;48.952;9.506;2023-04-09T08:38:58;98651.91;;;16.47;47.49
7802;BME280;3945;48.952;9.506;2023-04-09T08:41:25;98648.06;;;16.33;45.08
7802;BME280;3945;48.952;9.506;2023-04-09T08:43:52;98654.50;;;16.32;45.66
7802;BME280;3945;48.952;9.506;2023-04-09T08:46:20;98657.44;;;16.30;48.02
7802;BME280;3945;48.952;9.506;2023-04-09T08:48:47;98652.03;;;16.62;48.32
7802;BME280;3945;48.952;9.506;2023-04-09T08:51:13;98654.84;;;16.93;48.05
7802;BME280;3945;48.952;9.506;2023-04-09T08:53:42;98658.09;;;17.00;46.13
7802;BME280;3945;48.952;9.506;2023-04-09T08:56:09;98647.31;;;16.95;46.14
7802;BME280;3945;48.952;9.506;2023-04-09T08:58:37;98645.41;;;16.95;46.89
7802;BME280;3945;48.952;9.506;2023-04-09T09:01:05;98654.25;;;16.81;46.58
7802;BME280;3945;48.952;9.506;2023-04-09T09:03:51;98661.03;;;16.41;46.45
7802;BME280;3945;48.952;9.506;2023-04-09T09:06:19;98668.75;;;15.95;44.52
7802;BME280;3945;48.952;9.506;2023-04-09T09:08:49;98661.09;;;15.23;46.44
7802;BME280;3945;48.952;9.506;2023-04-09T09:11:24;98660.03;;;14.98;47.48
7802;BME280;3945;48.952;9.506;2023-04-09T09:13:55;98665.19;;;15.04;48.81
7802;BME280;3945;48.952;9.506;2023-04-09T09:16:22;98670.59;;;15.09;46.15
7802;BME280;3945;48.952;9.506;2023-04-09T09:18:48;98666.75;;;14.78;47.01
7802;BME280;3945;48.952;9.506;2023-04-09T09:21:16;98662.22;;;14.79;48.94
7802;BME280;3945;48.952;9.506;2023-04-09T09:23:43;98661.50;;;15.10;48.26
7802;BME280;3945;48.952;9.506;2023-04-09T09:26:13;98660.28;;;15.50;48.32
7802;BME280;3945;48.952;9.506;2023-04-09T09:28:42;98663.41;;;16.00;48.89
7802;BME280;3945;48.952;9.506;2023-04-09T09:31:09;98661.19;;;16.29;45.58
7802;BME280;3945;48.952;9.506;2023-04-09T09:33:36;98660.94;;;16.31;47.85
7802;BME280;3945;48.952;9.506;2023-04-09T09:36:02;98655.78;;;16.19;45.05
7802;BME280;3945;48.952;9.506;2023-04-09T09:38:29;98650.31;;;16.51;47.29
7802;BME280;3945;48.952;9.506;2023-04-09T09:40:56;98653.97;;;16.77;47.47
7802;BME280;3945;48.952;9.506;2023-04-09T09:43:24;98655.84;;;16.82;43.53
7802;BME280;3945;48.952;9.506;2023-04-09T09:45:50;98651.06;;;16.94;43.44
7802;BME280;3945;48.952;9.506;2023-04-09T09:48:17;98645.72;;;17.09;41.21
7802;BME280;3945;48.952;9.506;2023-04-09T09:50:43;98653.06;;;17.29;42.41
7802;BME280;3945;48.952;9.506;2023-04-09T09:53:11;98651.75;;;17.56;43.61
7802;BME280;3945;48.952;9.506;2023-04-09T09:55:39;98647.75;;;17.74;40.10
7802;BME280;3945;48.952;9.506;2023-04-09T09:58:08;98660.13;;;18.06;41.56
7802;BME280;3945;48.952;9.506;2023-04-09T10:00:38;98660.34;;;18.24;40.40
7802;BME280;3945;48.952;9.506;2023-04-09T10:03:06;98649.00;;;18.48;39.39
7802;BME280;3945;48.952;9.506;2023-04-09T10:05:37;98645.97;;;18.80;38.47
7802;BME280;3945;48.952;9.506;2023-04-09T10:08:04;98649.16;;;18.82;37.76
7802;BME280;3945;48.952;9.506;2023-04-09T10:10:32;98646.31;;;18.38;37.71
7802;BME280;3945;48.952;9.506;2023-04-09T10:12:59;98652.59;;;18.08;39.24
7802;BME280;3945;48.952;9.506;2023-04-09T10:15:26;98642.88;;;18.02;35.61
7802;BME280;3945;48.952;9.506;2023-04-09T10:17:54;98640.47;;;18.00;38.48
7802;BME280;3945;48.952;9.506;2023-04-09T10:20:22;98636.09;;;18.24;39.32
7802;BME280;3945;48.952;9.506;2023-04-09T10:22:49;98645.03;;;18.15;34.36
7802;BME280;3945;48.952;9.506;2023-04-09T10:25:16;98637.69;;;18.41;37.61
7802;BME280;3945;48.952;9.506;2023-04-09T10:27:42;98646.53;;;18.71;39.85
7802;BME280;3945;48.952;9.506;2023-04-09T10:30:13;98632.59;;;19.03;37.97
7802;BME280;3945;48.952;9.506;2023-04-09T10:32:59;98639.19;;;18.87;35.88
7802;BME280;3945;48.952;9.506;2023-04-09T10:35:33;98640.13;;;18.32;35.65
7802;BME280;3945;48.952;9.506;2023-04-09T10:37:59;98642.38;;;17.84;35.50
7802;BME280;3945;48.952;9.506;2023-04-09T10:40:26;98643.66;;;17.46;36.24
7802;BME280;3945;48.952;9.506;2023-04-09T10:42:53;98639.97;;;16.75;36.43
7802;BME280;3945;48.952;9.506;2023-04-09T10:45:20;98635.34;;;16.65;40.35
7802;BME280;3945;48.952;9.506;2023-04-09T10:47:48;98628.97;;;16.82;39.86
7802;BME280;3945;48.952;9.506;2023-04-09T10:50:19;98638.91;;;16.76;37.36
7802;BME280;3945;48.952;9.506;2023-04-09T10:52:46;98643.47;;;16.28;36.39
7802;BME280;3945;48.952;9.506;2023-04-09T10:55:28;98635.34;;;16.13;37.42
7802;BME280;3945;48.952;9.506;2023-04-09T10:57:55;98631.16;;;16.37;39.62
7802;BME280;3945;48.952;9.506;2023-04-09T11:00:21;98627.06;;;16.72;37.27
7802;BME280;3945;48.952;9.506;2023-04-09T11:03:01;98638.66;;;16.30;37.97
7802;BME280;3945;48.952;9.506;2023-04-09T11:05:33;98637.47;;;15.74;37.90
7802;BME280;3945;48.952;9.506;2023-04-09T11:08:03;98625.97;;;15.52;39.04
7802;BME280;3945;48.952;9.506;2023-04-09T11:10:29;98623.19;;;15.69;41.12
7802;BME280;3945;48.952;9.506;2023-04-09T11:12:56;98626.53;;;15.86;41.03
7802;BME280;3945;48.952;9.506;2023-04-09T11:15:22;98629.91;;;16.08;39.24
7802;BME280;3945;48.952;9.506;2023-04-09T11:17:48;98627.00;;;16.15;40.58
7802;BME280;3945;48.952;9.506;2023-04-09T11:20:15;98621.94;;;15.81;38.92
7802;BME280;3945;48.952;9.506;2023-04-09T11:25:16;98613.81;;;15.71;40.32
7802;BME280;3945;48.952;9.506;2023-04-09T11:27:43;98611.44;;;15.75;40.02
7802;BME280;3945;48.952;9.506;2023-04-09T11:30:10;98603.41;;;16.22;41.07
7802;BME280;3945;48.952;9.506;2023-04-09T11:32:37;98605.75;;;16.55;37.42
7802;BME280;3945;48.952;9.506;2023-04-09T11:35:03;98595.47;;;16.42;38.57
7802;BME280;3945;48.952;9.506;2023-04-09T11:37:30;98595.13;;;16.28;38.07
7802;BME280;3945;48.952;9.506;2023-04-09T11:39:56;98605.47;;;16.05;39.32
7802;BME280;3945;48.952;9.506;2023-04-09T11:42:29;98615.75;;;15.76;39.33
7802;BME280;3945;48.952;9.506;2023-04-09T11:44:59;98607.50;;;15.29;39.71
7802;BME280;3945;48.952;9.506;2023-04-09T11:47:25;98616.59;;;15.22;41.28
7802;BME280;3945;48.952;9.506;2023-04-09T11:49:52;98609.75;;;15.37;41.61
7802;BME280;3945;48.952;9.506;2023-04-09T11:52:18;98608.41;;;15.66;40.34
7802;BME280;3945;48.952;9.506;2023-04-09T11:54:47;98612.81;;;16.19;40.46
7802;BME280;3945;48.952;9.506;2023-04-09T11:57:13;98602.19;;;16.45;37.95
7802;BME280;3945;48.952;9.506;2023-04-09T11:59:41;98595.13;;;16.86;38.72
7802;BME280;3945;48.952;9.506;2023-04-09T12:02:07;98591.69;;;17.05;38.44
7802;BME280;3945;48.952;9.506;2023-04-09T12:04:34;98602.19;;;17.32;39.19
7802;BME280;3945;48.952;9.506;2023-04-09T12:07:00;98600.00;;;17.09;37.15
7802;BME280;3945;48.952;9.506;2023-04-09T12:09:26;98600.47;;;16.70;37.54
7802;BME280;3945;48.952;9.506;2023-04-09T12:11:53;98592.81;;;16.47;38.69
7802;BME280;3945;48.952;9.506;2023-04-09T12:14:20;98595.34;;;16.22;39.53
7802;BME280;3945;48.952;9.506;2023-04-09T12:16:50;98600.97;;;15.78;40.37
7802;BME280;3945;48.952;9.506;2023-04-09T12:19:17;98603.00;;;15.61;40.64
7802;BME280;3945;48.952;9.506;2023-04-09T12:21:44;98597.00;;;15.86;41.08
7802;BME280;3945;48.952;9.506;2023-04-09T12:24:11;98597.00;;;15.86;40.14
7802;BME280;3945;48.952;9.506;2023-04-09T12:26:38;98599.19;;;15.89;38.86
7802;BME280;3945;48.952;9.506;2023-04-09T12:29:04;98594.06;;;15.87;41.34
7802;BME280;3945;48.952;9.506;2023-04-09T12:31:31;98590.31;;;15.83;41.05
7802;BME280;3945;48.952;9.506;2023-04-09T12:33:58;98598.69;;;15.92;41.70
7802;BME280;3945;48.952;9.506;2023-04-09T12:36:25;98593.78;;;15.84;40.28
7802;BME280;3945;48.952;9.506;2023-04-09T12:38:51;98596.25;;;15.90;41.68
7802;BME280;3945;48.952;9.506;2023-04-09T12:41:17;98589.63;;;16.03;41.48
7802;BME280;3945;48.952;9.506;2023-04-09T12:43:43;98597.22;;;16.16;40.73
7802;BME280;3945;48.952;9.506;2023-04-09T12:46:11;98585.03;;;15.98;40.41
7802;BME280;3945;48.952;9.506;2023-04-09T12:48:37;98591.41;;;15.92;41.08
7802;BME280;3945;48.952;9.506;2023-04-09T12:51:05;98589.00;;;15.91;40.16
7802;BME280;3945;48.952;9.506;2023-04-09T12:53:32;98586.03;;;15.92;40.58
7802;BME280;3945;48.952;9.506;2023-04-09T12:55:59;98587.56;;;15.78;39.98
7802;BME280;3945;48.952;9.506;2023-04-09T12:58:25;98588.25;;;15.63;41.35
7802;BME280;3945;48.952;9.506;2023-04-09T13:00:52;98579.63;;;15.56;39.82
7802;BME280;3945;48.952;9.506;2023-04-09T13:03:18;98577.47;;;15.53;39.79
7802;BME280;3945;48.952;9.506;2023-04-09T13:05:45;98570.03;;;15.66;39.58
7802;BME280;3945;48.952;9.506;2023-04-09T13:08:13;98569.41;;;15.53;39.43
7802;BME280;3945;48.952;9.506;2023-04-09T13:10:40;98563.19;;;15.48;40.65
7802;BME280;3945;48.952;9.506;2023-04-09T13:13:08;98565.66;;;15.28;40.02
7802;BME280;3945;48.952;9.506;2023-04-09T13:15:36;98563.59;;;15.35;41.40
7802;BME280;3945;48.952;9.506;2023-04-09T13:18:03;98566.13;;;15.46;41.77
7802;BME280;3945;48.952;9.506;2023-04-09T13:20:29;98560.50;;;15.48;40.35
7802;BME280;3945;48.952;9.506;2023-04-09T13:22:55;98560.56;;;15.53;40.97
7802;BME280;3945;48.952;9.506;2023-04-09T13:25:23;98551.88;;;15.78;43.26
7802;BME280;3945;48.952;9.506;2023-04-09T13:27:49;98539.19;;;16.10;42.20
7802;BME280;3945;48.952;9.506;2023-04-09T13:30:16;98542.75;;;16.31;39.96